sensor_id;sensor_type;location;lat;lon;timestamp;pressure;altitude;pressure_sealevel;temperature;humidity
14269;BME280;7218;51.480;7.006;2023-02-19T00:01:29;100746.84;;;12.64;100.00
14269;BME280;7218;51.480;7.006;2023-02-19T00:03:56;100744.91;;;12.73;100.00
14269;BME280;7218;51.480;7.006;2023-02-19T00:06:25;100749.41;;;13.07;100.00
14269;BME280;7218;51.480;7.006;2023-02-19T00:08:53;100751.41;;;12.54;100.00
14269;BME280;7218;51.480;7.006;2023-02-19T00:11:22;100742.19;;;12.79;100.00
14269;BME280;7218;51.480;7.006;2023-02-19T00:13:50;100752.91;;;12.66;100.00
14269;BME280;7218;51.480;7.006;2023-02-19T00:16:18;100737.81;;;12.35;100.00
14269;BME280;7218;51.480;7.006;2023-02-19T00:18:45;100737.06;;;12.30;100.00
14269;BME280;7218;51.480;7.006;2023-02-19T00:21:13;100741.03;;;12.49;100.00
14269;BME280;7218;51.480;7.006;2023-02-19T00:23:47;100739.91;;;12.61;100.00
14269;BME280;7218;51.480;7.006;2023-02-19T00:26:14;100726.16;;;12.51;100.00
14269;BME280;7218;51.480;7.006;2023-02-19T00:28:41;100724.88;;;12.72;100.00
14269;BME280;7218;51.480;7.006;2023-02-19T00:31:14;100732.34;;;12.49;100.00
14269;BME280;7218;51.480;7.006;2023-02-19T00:33:41;100718.91;;;12.21;100.00
14269;BME280;7218;51.480;7.006;2023-02-19T00:36:08;100719.34;;;12.00;100.00
14269;BME280;7218;51.480;7.006;2023-02-19T00:38:35;100720.38;;;12.36;100.00
14269;BME280;7218;51.480;7.006;2023-02-19T00:41:02;100718.13;;;12.18;100.00
14269;BME280;7218;51.480;7.006;2023-02-19T00:43:45;100718.31;;;12.07;100.00
14269;BME280;7218;51.480;7.006;2023-02-19T00:46:12;100710.25;;;12.62;100.00
14269;BME280;7218;51.480;7.006;2023-02-19T00:48:38;100714.41;;;11.82;100.00
14269;BME280;7218;51.480;7.006;2023-02-19T00:51:04;100716.88;;;12.35;100.00
14269;BME280;7218;51.480;7.006;2023-02-19T00:53:31;100707.88;;;12.05;100.00
14269;BME280;7218;51.480;7.006;2023-02-19T00:55:57;100720.94;;;12.07;100.00
14269;BME280;7218;51.480;7.006;2023-02-19T00:58:24;100715.50;;;12.18;100.00
14269;BME280;7218;51.480;7.006;2023-02-19T01:00:52;100705.03;;;12.18;100.00
14269;BME280;7218;51.480;7.006;2023-02-19T01:03:18;100705.59;;;12.35;100.00
14269;BME280;7218;51.480;7.006;2023-02-19T01:05:46;100710.47;;;12.51;100.00
14269;BME280;7218;51.480;7.006;2023-02-19T01:08:13;100708.34;;;12.27;100.00
14269;BME280;7218;51.480;7.006;2023-02-19T01:10:39;100701.25;;;12.34;100.00
14269;BME280;7218;51.480;7.006;2023-02-19T01:13:06;100709.53;;;12.11;100.00
14269;BME280;7218;51.480;7.006;2023-02-19T01:15:32;100702.94;;;12.36;100.00
14269;BME280;7218;51.480;7.006;2023-02-19T01:18:00;100695.72;;;12.04;100.00
14269;BME280;7218;51.480;7.006;2023-02-19T01:20:27;100714.16;;;12.41;100.00
14269;BME280;7218;51.480;7.006;2023-02-19T01:22:53;100708.22;;;11.87;100.00
14269;BME280;7218;51.480;7.006;2023-02-19T01:25:20;100716.22;;;12.26;100.00
14269;BME280;7218;51.480;7.006;2023-02-19T01:27:46;100708.31;;;12.30;100.00
14269;BME280;7218;51.480;7.006;2023-02-19T01:30:13;100709.50;;;12.13;100.00
14269;BME280;7218;51.480;7.006;2023-02-19T01:32:39;100706.50;;;11.86;100.00
14269;BME280;7218;51.480;7.006;2023-02-19T01:35:07;100709.28;;;12.25;100.00
14269;BME280;7218;51.480;7.006;2023-02-19T01:37:34;100708.22;;;12.33;100.00
14269;BME280;7218;51.480;7.006;2023-02-19T01:40:00;100711.34;;;12.07;100.00
14269;BME280;7218;51.480;7.006;2023-02-19T01:42:27;100704.31;;;12.54;100.00
14269;BME280;7218;51.480;7.006;2023-02-19T01:45:25;100700.44;;;12.72;100.00
14269;BME280;7218;51.480;7.006;2023-02-19T01:47:56;100704.41;;;12.49;100.00
14269;BME280;7218;51.480;7.006;2023-02-19T01:50:27;100709.69;;;12.46;100.00
14269;BME280;7218;51.480;7.006;2023-02-19T01:52:55;100709.38;;;12.63;100.00
14269;BME280;7218;51.480;7.006;2023-02-19T01:55:22;100693.97;;;12.49;100.00
14269;BME280;7218;51.480;7.006;2023-02-19T01:57:52;100698.81;;;12.25;100.00
14269;BME280;7218;51.480;7.006;2023-02-19T02:00:20;100705.13;;;12.13;100.00
14269;BME280;7218;51.480;7.006;2023-02-19T02:02:51;100707.94;;;12.47;100.00
14269;BME280;7218;51.480;7.006;2023-02-19T02:05:37;100707.44;;;12.30;100.00
14269;BME280;7218;51.480;7.006;2023-02-19T02:08:05;100711.59;;;12.40;100.00
14269;BME280;7218;51.480;7.006;2023-02-19T02:10:49;100716.06;;;12.35;100.00
14269;BME280;7218;51.480;7.006;2023-02-19T02:13:16;100711.00;;;11.78;100.00
14269;BME280;7218;51.480;7.006;2023-02-19T02:15:49;100712.78;;;12.67;100.00
14269;BME280;7218;51.480;7.006;2023-02-19T02:18:27;100721.97;;;12.44;100.00
14269;BME280;7218;51.480;7.006;2023-02-19T02:21:22;100722.63;;;12.54;100.00
14269;BME280;7218;51.480;7.006;2023-02-19T02:24:20;100721.47;;;13.09;100.00
14269;BME280;7218;51.480;7.006;2023-02-19T02:27:11;100734.81;;;12.97;100.00
14269;BME280;7218;51.480;7.006;2023-02-19T02:30:07;100724.88;;;13.11;100.00
14269;BME280;7218;51.480;7.006;2023-02-19T02:32:39;100723.56;;;12.91;100.00
14269;BME280;7218;51.480;7.006;2023-02-19T02:35:19;100709.47;;;12.57;100.00
14269;BME280;7218;51.480;7.006;2023-02-19T02:37:48;100719.41;;;12.83;100.00
14269;BME280;7218;51.480;7.006;2023-02-19T02:40:17;100717.59;;;12.45;100.00
14269;BME280;7218;51.480;7.006;2023-02-19T02:42:44;100717.28;;;12.60;100.00
14269;BME280;7218;51.480;7.006;2023-02-19T02:45:27;100713.81;;;12.58;100.00
14269;BME280;7218;51.480;7.006;2023-02-19T02:48:17;100710.25;;;12.62;100.00
14269;BME280;7218;51.480;7.006;2023-02-19T02:50:49;100717.97;;;12.70;100.00
14269;BME280;7218;51.480;7.006;2023-02-19T02:53:20;100721.19;;;12.81;100.00
14269;BME280;7218;51.480;7.006;2023-02-19T02:56:06;100717.13;;;12.66;100.00
14269;BME280;7218;51.480;7.006;2023-02-19T02:58:35;100719.72;;;12.69;100.00
14269;BME280;7218;51.480;7.006;2023-02-19T03:01:06;100715.41;;;12.65;100.00
14269;BME280;7218;51.480;7.006;2023-02-19T03:03:55;100728.41;;;12.70;100.00
14269;BME280;7218;51.480;7.006;2023-02-19T03:06:25;100724.63;;;12.83;100.00
14269;BME280;7218;51.480;7.006;2023-02-19T03:08:57;100727.59;;;12.66;100.00
14269;BME280;7218;51.480;7.006;2023-02-19T03:11:27;100734.97;;;12.89;100.00
14269;BME280;7218;51.480;7.006;2023-02-19T03:14:16;100736.56;;;12.96;100.00
14269;BME280;7218;51.480;7.006;2023-02-19T03:17:07;100739.72;;;12.70;100.00
14269;BME280;7218;51.480;7.006;2023-02-19T03:19:55;100739.69;;;12.30;100.00
14269;BME280;7218;51.480;7.006;2023-02-19T03:22:24;100738.22;;;12.60;100.00
14269;BME280;7218;51.480;7.006;2023-02-19T03:24:57;100738.81;;;12.73;100.00
14269;BME280;7218;51.480;7.006;2023-02-19T03:27:42;100745.19;;;12.60;100.00
14269;BME280;7218;51.480;7.006;2023-02-19T03:30:13;100750.69;;;12.89;100.00
14269;BME280;7218;51.480;7.006;2023-02-19T03:32:46;100755.03;;;12.47;100.00
14269;BME280;7218;51.480;7.006;2023-02-19T03:35:16;100761.03;;;12.52;100.00
14269;BME280;7218;51.480;7.006;2023-02-19T03:37:48;100754.06;;;12.51;100.00
14269;BME280;7218;51.480;7.006;2023-02-19T03:40:16;100757.53;;;12.53;100.00
14269;BME280;7218;51.480;7.006;2023-02-19T03:42:50;100762.38;;;12.71;100.00
14269;BME280;7218;51.480;7.006;2023-02-19T03:45:30;100766.94;;;12.62;100.00
14269;BME280;7218;51.480;7.006;2023-02-19T03:48:19;100772.63;;;12.83;100.00
14269;BME280;7218;51.480;7.006;2023-02-19T03:50:51;100770.00;;;12.83;100.00
14269;BME280;7218;51.480;7.006;2023-02-19T03:53:26;100759.94;;;12.64;100.00
14269;BME280;7218;51.480;7.006;2023-02-19T03:56:03;100770.38;;;13.07;100.00
14269;BME280;7218;51.480;7.006;2023-02-19T03:58:37;100785.81;;;12.34;100.00
14269;BME280;7218;51.480;7.006;2023-02-19T04:01:09;100791.13;;;12.30;100.00
14269;BME280;7218;51.480;7.006;2023-02-19T04:03:43;100784.94;;;12.34;100.00
14269;BME280;7218;51.480;7.006;2023-02-19T04:06:14;100793.78;;;12.71;100.00
14269;BME280;7218;51.480;7.006;2023-02-19T04:08:47;100794.47;;;12.81;100.00
14269;BME280;7218;51.480;7.006;2023-02-19T04:11:15;100803.19;;;12.81;100.00
14269;BME280;7218;51.480;7.006;2023-02-19T04:13:47;100807.44;;;12.42;100.00
14269;BME280;7218;51.480;7.006;2023-02-19T04:16:19;100812.19;;;12.67;100.00
14269;BME280;7218;51.480;7.006;2023-02-19T04:18:50;100801.06;;;12.56;100.00
14269;BME280;7218;51.480;7.006;2023-02-19T04:21:19;100818.56;;;12.98;100.00
14269;BME280;7218;51.480;7.006;2023-02-19T04:23:47;100810.03;;;12.88;100.00
14269;BME280;7218;51.480;7.006;2023-02-19T04:26:15;100810.47;;;12.66;100.00
14269;BME280;7218;51.480;7.006;2023-02-19T04:28:42;100814.19;;;12.99;100.00
14269;BME280;7218;51.480;7.006;2023-02-19T04:31:09;100816.94;;;12.91;100.00
14269;BME280;7218;51.480;7.006;2023-02-19T04:33:36;100829.69;;;12.65;100.00
14269;BME280;7218;51.480;7.006;2023-02-19T04:36:08;100836.22;;;12.88;100.00
14269;BME280;7218;51.480;7.006;2023-02-19T04:38:35;100828.09;;;13.01;100.00
14269;BME280;7218;51.480;7.006;2023-02-19T04:41:01;100838.72;;;12.93;100.00
14269;BME280;7218;51.480;7.006;2023-02-19T04:43:28;100841.66;;;12.76;100.00
14269;BME280;7218;51.480;7.006;2023-02-19T04:45:58;100843.41;;;12.30;100.00
14269;BME280;7218;51.480;7.006;2023-02-19T04:48:25;100838.72;;;12.93;100.00
14269;BME280;7218;51.480;7.006;2023-02-19T04:50:51;100845.75;;;12.45;100.00
14269;BME280;7218;51.480;7.006;2023-02-19T04:53:19;100849.81;;;12.61;100.00
14269;BME280;7218;51.480;7.006;2023-02-19T04:55:45;100847.09;;;12.66;100.00
14269;BME280;7218;51.480;7.006;2023-02-19T04:58:12;100848.00;;;12.65;100.00
14269;BME280;7218;51.480;7.006;2023-02-19T05:00:39;100860.06;;;12.73;100.00
14269;BME280;7218;51.480;7.006;2023-02-19T05:03:05;100847.56;;;12.86;100.00
14269;BME280;7218;51.480;7.006;2023-02-19T05:05:31;100861.19;;;12.60;100.00
14269;BME280;7218;51.480;7.006;2023-02-19T05:07:58;100857.84;;;12.50;100.00
14269;BME280;7218;51.480;7.006;2023-02-19T05:10:26;100864.44;;;12.24;100.00
14269;BME280;7218;51.480;7.006;2023-02-19T05:12:53;100867.25;;;12.12;100.00
14269;BME280;7218;51.480;7.006;2023-02-19T05:15:20;100870.47;;;12.26;100.00
14269;BME280;7218;51.480;7.006;2023-02-19T05:17:46;100876.31;;;12.43;100.00
14269;BME280;7218;51.480;7.006;2023-02-19T05:20:12;100871.88;;;12.46;100.00
14269;BME280;7218;51.480;7.006;2023-02-19T05:22:39;100877.94;;;12.50;100.00
14269;BME280;7218;51.480;7.006;2023-02-19T05:25:06;100893.97;;;12.30;100.00
14269;BME280;7218;51.480;7.006;2023-02-19T05:27:33;100892.44;;;12.16;100.00
14269;BME280;7218;51.480;7.006;2023-02-19T05:30:00;100898.47;;;12.21;100.00
14269;BME280;7218;51.480;7.006;2023-02-19T05:32:26;100898.38;;;12.27;100.00
14269;BME280;7218;51.480;7.006;2023-02-19T05:34:53;100888.97;;;12.66;100.00
14269;BME280;7218;51.480;7.006;2023-02-19T05:37:19;100899.25;;;12.26;100.00
14269;BME280;7218;51.480;7.006;2023-02-19T05:39:47;100902.25;;;12.01;100.00
14269;BME280;7218;51.480;7.006;2023-02-19T05:42:13;100903.75;;;12.68;100.00
14269;BME280;7218;51.480;7.006;2023-02-19T05:44:41;100912.06;;;12.42;100.00
14269;BME280;7218;51.480;7.006;2023-02-19T05:47:08;100904.78;;;12.07;100.00
14269;BME280;7218;51.480;7.006;2023-02-19T05:49:34;100901.59;;;11.87;100.00
14269;BME280;7218;51.480;7.006;2023-02-19T05:52:01;100916.09;;;12.08;100.00
14269;BME280;7218;51.480;7.006;2023-02-19T05:54:27;100913.31;;;12.19;100.00
14269;BME280;7218;51.480;7.006;2023-02-19T05:56:54;100914.13;;;12.24;100.00
14269;BME280;7218;51.480;7.006;2023-02-19T05:59:22;100919.44;;;12.18;100.00
14269;BME280;7218;51.480;7.006;2023-02-19T06:01:51;100920.09;;;11.71;100.00
14269;BME280;7218;51.480;7.006;2023-02-19T06:04:18;100927.09;;;11.70;100.00
14269;BME280;7218;51.480;7.006;2023-02-19T06:06:46;100930.88;;;12.11;100.00
14269;BME280;7218;51.480;7.006;2023-02-19T06:09:13;100926.94;;;11.81;100.00
14269;BME280;7218;51.480;7.006;2023-02-19T06:11:39;100922.91;;;12.20;100.00
14269;BME280;7218;51.480;7.006;2023-02-19T06:14:07;100927.66;;;11.93;100.00
14269;BME280;7218;51.480;7.006;2023-02-19T06:16:33;100931.84;;;12.03;100.00
14269;BME280;7218;51.480;7.006;2023-02-19T06:19:02;100930.25;;;11.95;100.00
14269;BME280;7218;51.480;7.006;2023-02-19T06:21:29;100931.31;;;12.38;100.00
14269;BME280;7218;51.480;7.006;2023-02-19T06:23:55;100931.81;;;12.06;100.00
14269;BME280;7218;51.480;7.006;2023-02-19T06:26:23;100945.47;;;12.25;100.00
14269;BME280;7218;51.480;7.006;2023-02-19T06:28:51;100940.06;;;12.36;100.00
14269;BME280;7218;51.480;7.006;2023-02-19T06:31:21;100950.31;;;12.49;100.00
14269;BME280;7218;51.480;7.006;2023-02-19T06:33:48;100958.13;;;12.51;100.00
14269;BME280;7218;51.480;7.006;2023-02-19T06:36:18;100954.72;;;12.46;100.00
14269;BME280;7218;51.480;7.006;2023-02-19T06:38:45;100956.91;;;12.17;100.00
14269;BME280;7218;51.480;7.006;2023-02-19T06:41:11;100955.72;;;12.39;100.00
14269;BME280;7218;51.480;7.006;2023-02-19T06:43:38;100961.81;;;11.80;100.00
14269;BME280;7218;51.480;7.006;2023-02-19T06:46:05;100965.69;;;12.13;100.00
14269;BME280;7218;51.480;7.006;2023-02-19T06:48:32;100975.44;;;12.03;100.00
14269;BME280;7218;51.480;7.006;2023-02-19T06:50:59;100971.72;;;12.19;100.00
14269;BME280;7218;51.480;7.006;2023-02-19T06:53:27;100976.84;;;12.25;100.00
14269;BME280;7218;51.480;7.006;2023-02-19T06:55:55;100981.06;;;12.34;100.00
14269;BME280;7218;51.480;7.006;2023-02-19T06:58:21;100997.56;;;12.39;100.00
14269;BME280;7218;51.480;7.006;2023-02-19T07:00:48;100992.09;;;12.54;100.00
14269;BME280;7218;51.480;7.006;2023-02-19T07:03:14;101002.09;;;12.28;100.00
14269;BME280;7218;51.480;7.006;2023-02-19T07:05:40;101007.59;;;12.06;100.00
14269;BME280;7218;51.480;7.006;2023-02-19T07:08:08;101007.16;;;11.76;100.00
14269;BME280;7218;51.480;7.006;2023-02-19T07:10:36;101016.97;;;12.23;100.00
14269;BME280;7218;51.480;7.006;2023-02-19T07:13:02;101020.66;;;12.08;100.00
14269;BME280;7218;51.480;7.006;2023-02-19T07:15:29;101019.22;;;11.86;100.00
14269;BME280;7218;51.480;7.006;2023-02-19T07:17:55;101021.78;;;11.90;100.00
14269;BME280;7218;51.480;7.006;2023-02-19T07:20:23;101028.09;;;12.38;100.00
14269;BME280;7218;51.480;7.006;2023-02-19T07:22:50;101032.88;;;12.06;100.00
14269;BME280;7218;51.480;7.006;2023-02-19T07:25:16;101046.31;;;11.80;100.00
14269;BME280;7218;51.480;7.006;2023-02-19T07:27:44;101038.09;;;12.07;100.00
14269;BME280;7218;51.480;7.006;2023-02-19T07:30:11;101053.19;;;11.87;100.00
14269;BME280;7218;51.480;7.006;2023-02-19T07:32:40;101064.13;;;12.17;100.00
14269;BME280;7218;51.480;7.006;2023-02-19T07:35:06;101065.56;;;11.67;100.00
14269;BME280;7218;51.480;7.006;2023-02-19T07:37:33;101058.88;;;12.17;100.00
14269;BME280;7218;51.480;7.006;2023-02-19T07:39:59;101074.09;;;11.87;100.00
14269;BME280;7218;51.480;7.006;2023-02-19T07:42:26;101068.72;;;11.98;100.00
14269;BME280;7218;51.480;7.006;2023-02-19T07:44:54;101084.00;;;12.30;100.00
14269;BME280;7218;51.480;7.006;2023-02-19T07:47:20;101079.59;;;12.32;100.00
14269;BME280;7218;51.480;7.006;2023-02-19T07:49:47;101077.50;;;11.92;100.00
14269;BME280;7218;51.480;7.006;2023-02-19T07:52:13;101070.41;;;12.00;100.00
14269;BME280;7218;51.480;7.006;2023-02-19T07:54:40;101076.91;;;12.38;100.00
14269;BME280;7218;51.480;7.006;2023-02-19T07:57:06;101080.47;;;12.32;100.00
14269;BME280;7218;51.480;7.006;2023-02-19T07:59:33;101085.31;;;11.95;100.00
14269;BME280;7218;51.480;7.006;2023-02-19T08:02:01;101098.28;;;12.01;100.00
14269;BME280;7218;51.480;7.006;2023-02-19T08:04:45;101099.16;;;12.05;100.00
14269;BME280;7218;51.480;7.006;2023-02-19T08:07:12;101105.19;;;12.10;100.00
14269;BME280;7218;51.480;7.006;2023-02-19T08:09:39;101105.94;;;12.20;100.00
14269;BME280;7218;51.480;7.006;2023-02-19T08:12:07;101119.69;;;12.32;100.00
14269;BME280;7218;51.480;7.006;2023-02-19T08:14:59;101124.94;;;12.31;100.00
14269;BME280;7218;51.480;7.006;2023-02-19T08:17:27;101116.53;;;12.06;100.00
14269;BME280;7218;51.480;7.006;2023-02-19T08:19:55;101118.09;;;12.24;100.00
14269;BME280;7218;51.480;7.006;2023-02-19T08:22:21;101121.06;;;11.93;100.00
14269;BME280;7218;51.480;7.006;2023-02-19T08:24:48;101125.00;;;12.28;100.00
14269;BME280;7218;51.480;7.006;2023-02-19T08:27:14;101121.94;;;11.92;100.00
14269;BME280;7218;51.480;7.006;2023-02-19T08:29:41;101110.78;;;12.48;100.00
14269;BME280;7218;51.480;7.006;2023-02-19T08:32:07;101121.13;;;12.56;100.00
14269;BME280;7218;51.480;7.006;2023-02-19T08:34:35;101114.88;;;12.66;100.00
14269;BME280;7218;51.480;7.006;2023-02-19T08:37:02;101113.59;;;12.35;100.00
14269;BME280;7218;51.480;7.006;2023-02-19T08:39:28;101117.25;;;12.83;100.00
14269;BME280;7218;51.480;7.006;2023-02-19T08:41:54;101126.53;;;12.44;100.00
14269;BME280;7218;51.480;7.006;2023-02-19T08:44:21;101127.81;;;12.75;100.00
14269;BME280;7218;51.480;7.006;2023-02-19T08:46:47;101130.84;;;12.48;100.00
14269;BME280;7218;51.480;7.006;2023-02-19T08:49:14;101136.34;;;12.27;100.00
14269;BME280;7218;51.480;7.006;2023-02-19T08:51:42;101138.00;;;12.95;100.00
14269;BME280;7218;51.480;7.006;2023-02-19T08:54:09;101144.91;;;12.38;100.00
14269;BME280;7218;51.480;7.006;2023-02-19T08:56:35;101142.38;;;12.32;100.00
14269;BME280;7218;51.480;7.006;2023-02-19T08:59:01;101137.38;;;12.78;97.99
14269;BME280;7218;51.480;7.006;2023-02-19T09:01:28;101145.09;;;12.85;97.57
14269;BME280;7218;51.480;7.006;2023-02-19T09:03:54;101141.50;;;12.94;97.06
14269;BME280;7218;51.480;7.006;2023-02-19T09:06:21;101146.47;;;13.14;96.73
14269;BME280;7218;51.480;7.006;2023-02-19T09:08:49;101149.69;;;12.71;96.85
14269;BME280;7218;51.480;7.006;2023-02-19T09:11:15;101159.06;;;12.86;96.54
14269;BME280;7218;51.480;7.006;2023-02-19T09:13:42;101167.06;;;12.75;97.23
14269;BME280;7218;51.480;7.006;2023-02-19T09:16:10;101166.91;;;12.86;96.90
14269;BME280;7218;51.480;7.006;2023-02-19T09:18:37;101168.94;;;12.69;97.32
14269;BME280;7218;51.480;7.006;2023-02-19T09:21:04;101177.81;;;13.20;95.96
14269;BME280;7218;51.480;7.006;2023-02-19T09:23:31;101188.53;;;13.00;96.86
14269;BME280;7218;51.480;7.006;2023-02-19T09:26:00;101181.84;;;13.39;95.44
14269;BME280;7218;51.480;7.006;2023-02-19T09:28:27;101188.63;;;12.94;96.25
14269;BME280;7218;51.480;7.006;2023-02-19T09:30:54;101190.53;;;12.81;97.07
14269;BME280;7218;51.480;7.006;2023-02-19T09:33:20;101199.94;;;12.96;96.73
14269;BME280;7218;51.480;7.006;2023-02-19T09:35:47;101192.72;;;13.10;95.15
14269;BME280;7218;51.480;7.006;2023-02-19T09:38:13;101180.50;;;13.11;94.96
14269;BME280;7218;51.480;7.006;2023-02-19T09:40:40;101200.19;;;12.79;97.37
14269;BME280;7218;51.480;7.006;2023-02-19T09:43:11;101189.59;;;12.85;98.48
14269;BME280;7218;51.480;7.006;2023-02-19T09:45:41;101196.28;;;12.45;100.00
14269;BME280;7218;51.480;7.006;2023-02-19T09:48:08;101198.22;;;12.95;99.30
14269;BME280;7218;51.480;7.006;2023-02-19T09:50:37;101211.00;;;12.52;100.00
14269;BME280;7218;51.480;7.006;2023-02-19T09:53:12;101213.13;;;12.90;100.00
14269;BME280;7218;51.480;7.006;2023-02-19T09:55:41;101214.91;;;12.86;100.00
14269;BME280;7218;51.480;7.006;2023-02-19T09:58:18;101222.91;;;13.39;98.18
14269;BME280;7218;51.480;7.006;2023-02-19T10:00:49;101234.09;;;13.48;97.47
14269;BME280;7218;51.480;7.006;2023-02-19T10:03:21;101241.88;;;13.54;97.03
14269;BME280;7218;51.480;7.006;2023-02-19T10:05:49;101248.31;;;13.32;96.60
14269;BME280;7218;51.480;7.006;2023-02-19T10:08:18;101253.41;;;12.77;97.05
14269;BME280;7218;51.480;7.006;2023-02-19T10:10:45;101260.38;;;13.44;97.21
14269;BME280;7218;51.480;7.006;2023-02-19T10:13:17;101270.84;;;13.97;92.66
14269;BME280;7218;51.480;7.006;2023-02-19T10:15:46;101271.19;;;13.76;91.98
14269;BME280;7218;51.480;7.006;2023-02-19T10:18:16;101263.84;;;13.96;91.26
14269;BME280;7218;51.480;7.006;2023-02-19T10:20:44;101262.53;;;14.20;89.11
14269;BME280;7218;51.480;7.006;2023-02-19T10:23:13;101272.41;;;12.92;92.59
14269;BME280;7218;51.480;7.006;2023-02-19T10:25:43;101274.06;;;13.61;91.36
14269;BME280;7218;51.480;7.006;2023-02-19T10:28:14;101287.81;;;13.18;92.01
14269;BME280;7218;51.480;7.006;2023-02-19T10:30:42;101295.31;;;13.44;91.89
14269;BME280;7218;51.480;7.006;2023-02-19T10:33:10;101294.84;;;13.73;90.64
14269;BME280;7218;51.480;7.006;2023-02-19T10:35:50;101301.28;;;13.52;91.98
14269;BME280;7218;51.480;7.006;2023-02-19T10:38:19;101301.13;;;13.61;91.02
14269;BME280;7218;51.480;7.006;2023-02-19T10:40:50;101305.00;;;13.94;89.50
14269;BME280;7218;51.480;7.006;2023-02-19T10:43:24;101311.66;;;13.60;90.62
14269;BME280;7218;51.480;7.006;2023-02-19T10:45:57;101311.19;;;13.32;91.39
14269;BME280;7218;51.480;7.006;2023-02-19T10:48:28;101294.34;;;13.50;91.20
14269;BME280;7218;51.480;7.006;2023-02-19T10:50:59;101297.78;;;13.52;91.95
14269;BME280;7218;51.480;7.006;2023-02-19T10:53:40;101297.97;;;13.95;89.51
14269;BME280;7218;51.480;7.006;2023-02-19T10:56:08;101291.22;;;14.77;86.47
14269;BME280;7218;51.480;7.006;2023-02-19T10:58:36;101300.69;;;15.25;82.37
14269;BME280;7218;51.480;7.006;2023-02-19T11:01:15;101325.28;;;14.80;83.86
14269;BME280;7218;51.480;7.006;2023-02-19T11:03:44;101332.94;;;14.47;83.76
14269;BME280;7218;51.480;7.006;2023-02-19T11:06:12;101320.56;;;14.54;83.36
14269;BME280;7218;51.480;7.006;2023-02-19T11:08:46;101329.16;;;14.13;84.38
14269;BME280;7218;51.480;7.006;2023-02-19T11:11:27;101326.44;;;13.64;88.01
14269;BME280;7218;51.480;7.006;2023-02-19T11:13:58;101322.31;;;14.98;82.43
14269;BME280;7218;51.480;7.006;2023-02-19T11:16:37;101321.97;;;15.90;79.62
14269;BME280;7218;51.480;7.006;2023-02-19T11:19:05;101325.19;;;15.26;79.47
14269;BME280;7218;51.480;7.006;2023-02-19T11:21:31;101328.47;;;15.35;78.30
14269;BME280;7218;51.480;7.006;2023-02-19T11:23:59;101325.63;;;15.06;79.82
14269;BME280;7218;51.480;7.006;2023-02-19T11:26:30;101337.38;;;14.88;81.42
14269;BME280;7218;51.480;7.006;2023-02-19T11:29:12;101316.63;;;14.75;82.19
14269;BME280;7218;51.480;7.006;2023-02-19T11:31:42;101318.47;;;14.71;83.47
14269;BME280;7218;51.480;7.006;2023-02-19T11:34:24;101315.44;;;15.32;82.55
14269;BME280;7218;51.480;7.006;2023-02-19T11:37:07;101315.03;;;14.68;79.77
14269;BME280;7218;51.480;7.006;2023-02-19T11:39:34;101317.19;;;15.32;78.56
14269;BME280;7218;51.480;7.006;2023-02-19T11:42:37;101321.44;;;14.54;81.19
14269;BME280;7218;51.480;7.006;2023-02-19T11:45:13;101311.84;;;14.03;83.96
14269;BME280;7218;51.480;7.006;2023-02-19T11:47:55;101311.59;;;13.64;86.77
14269;BME280;7218;51.480;7.006;2023-02-19T11:50:30;101319.53;;;13.58;87.00
14269;BME280;7218;51.480;7.006;2023-02-19T11:53:09;101307.66;;;13.91;85.78
14269;BME280;7218;51.480;7.006;2023-02-19T11:55:48;101316.84;;;14.16;84.81
14269;BME280;7218;51.480;7.006;2023-02-19T11:58:32;101310.84;;;14.59;81.77
14269;BME280;7218;51.480;7.006;2023-02-19T12:01:07;101313.22;;;14.70;82.23
14269;BME280;7218;51.480;7.006;2023-02-19T12:03:56;101307.09;;;14.25;82.60
14269;BME280;7218;51.480;7.006;2023-02-19T12:06:32;101312.53;;;14.61;82.10
14269;BME280;7218;51.480;7.006;2023-02-19T12:12:03;101314.72;;;13.88;85.36
14269;BME280;7218;51.480;7.006;2023-02-19T12:15:03;101324.94;;;14.04;84.90
14269;BME280;7218;51.480;7.006;2023-02-19T12:18:07;101321.09;;;14.70;83.35
14269;BME280;7218;51.480;7.006;2023-02-19T12:20:42;101334.41;;;14.60;82.42
14269;BME280;7218;51.480;7.006;2023-02-19T12:23:35;101327.91;;;14.80;82.78
14269;BME280;7218;51.480;7.006;2023-02-19T12:26:17;101332.38;;;14.27;81.59
14269;BME280;7218;51.480;7.006;2023-02-19T12:29:04;101331.88;;;14.57;81.71
14269;BME280;7218;51.480;7.006;2023-02-19T12:32:08;101331.78;;;15.05;78.57
14269;BME280;7218;51.480;7.006;2023-02-19T12:35:06;101345.84;;;14.58;78.91
14269;BME280;7218;51.480;7.006;2023-02-19T12:37:41;101342.59;;;13.92;82.38
14269;BME280;7218;51.480;7.006;2023-02-19T12:40:33;101353.97;;;13.34;87.36
14269;BME280;7218;51.480;7.006;2023-02-19T12:43:09;101362.97;;;13.13;92.18
14269;BME280;7218;51.480;7.006;2023-02-19T12:45:41;101364.34;;;13.40;89.24
14269;BME280;7218;51.480;7.006;2023-02-19T12:48:13;101350.28;;;13.47;87.44
14269;BME280;7218;51.480;7.006;2023-02-19T12:50:44;101359.63;;;13.65;85.86
14269;BME280;7218;51.480;7.006;2023-02-19T12:53:22;101343.88;;;14.20;82.98
14269;BME280;7218;51.480;7.006;2023-02-19T12:55:50;101355.53;;;14.04;83.19
14269;BME280;7218;51.480;7.006;2023-02-19T12:58:23;101355.38;;;14.63;78.37
14269;BME280;7218;51.480;7.006;2023-02-19T13:00:52;101349.31;;;15.44;73.58
14269;BME280;7218;51.480;7.006;2023-02-19T13:03:27;101349.22;;;15.09;74.57
14269;BME280;7218;51.480;7.006;2023-02-19T13:06:01;101354.63;;;15.01;74.49
14269;BME280;7218;51.480;7.006;2023-02-19T13:08:31;101352.00;;;15.00;74.66
14269;BME280;7218;51.480;7.006;2023-02-19T13:11:04;101353.13;;;15.30;72.95
14269;BME280;7218;51.480;7.006;2023-02-19T13:13:34;101360.28;;;14.31;76.38
14269;BME280;7218;51.480;7.006;2023-02-19T13:16:11;101362.06;;;14.31;76.59